createdAt,value
2023-04-23T00:01:53.421Z,40.33
2023-04-23T00:04:23.065Z,40.29
2023-04-23T00:06:54.314Z,40.16
2023-04-23T00:09:23.589Z,40.46
2023-04-23T00:11:51.863Z,40.61
2023-04-23T00:14:22.362Z,40.55
2023-04-23T00:16:51.971Z,40.67
2023-04-23T00:19:22.213Z,40.46
2023-04-23T00:21:50.193Z,40.94
2023-04-23T00:24:19.594Z,40.98
2023-04-23T00:26:52.547Z,41.00
2023-04-23T00:29:21.039Z,40.71
2023-04-23T00:31:51.707Z,40.70
2023-04-23T00:34:23.448Z,40.54
2023-04-23T00:36:54.670Z,40.82
2023-04-23T01:08:51.997Z,40.37
2023-04-23T01:11:23.140Z,40.29
2023-04-23T01:13:51.690Z,40.53
2023-04-23T01:16:19.572Z,40.32
2023-04-23T01:18:49.545Z,40.42
2023-04-23T01:21:19.537Z,40.49
2023-04-23T01:23:49.900Z,40.46
2023-04-23T01:26:20.587Z,40.42
2023-04-23T01:28:49.139Z,40.50
2023-04-23T01:31:19.334Z,40.52
2023-04-23T01:33:48.989Z,40.46
2023-04-23T01:36:19.089Z,40.87
2023-04-23T01:38:48.719Z,40.76
2023-04-23T01:41:17.200Z,40.68
2023-04-23T01:43:47.078Z,40.66
2023-04-23T01:46:16.960Z,40.91
2023-04-23T01:48:45.965Z,40.93
2023-04-23T01:51:15.330Z,40.95
2023-04-23T01:53:51.153Z,40.91
2023-04-23T01:56:21.137Z,41.15
2023-04-23T01:58:51.505Z,41.12
2023-04-23T02:01:20.463Z,41.16
2023-04-23T02:03:50.652Z,41.16
2023-04-23T02:06:19.528Z,41.13
2023-04-23T02:08:48.032Z,41.09
2023-04-23T02:11:17.067Z,41.22
2023-04-23T02:13:44.929Z,41.12
2023-04-23T02:16:14.272Z,41.11
2023-04-23T02:18:44.267Z,41.24
2023-04-23T02:21:15.130Z,41.20
2023-04-23T02:23:45.820Z,41.28
2023-04-23T02:26:13.332Z,41.38
2023-04-23T02:28:42.178Z,41.21
2023-04-23T02:31:12.448Z,41.27
2023-04-23T02:33:43.248Z,41.27
2023-04-23T02:36:13.270Z,41.43
2023-04-23T02:38:42.628Z,41.53
2023-04-23T02:41:12.112Z,41.58
2023-04-23T02:43:41.208Z,41.68
2023-04-23T02:46:33.163Z,41.63
2023-04-23T02:49:02.492Z,41.69
2023-04-23T02:51:31.403Z,41.64
2023-04-23T02:53:59.236Z,41.64
2023-04-23T02:56:28.377Z,41.78
2023-04-23T02:58:58.188Z,41.81
2023-04-23T03:01:29.129Z,41.86
2023-04-23T03:03:59.144Z,42.16
2023-04-23T03:06:27.739Z,42.21
2023-04-23T03:08:57.600Z,42.45
2023-04-23T03:11:25.200Z,42.11
2023-04-23T03:13:55.895Z,42.20
2023-04-23T03:16:26.677Z,42.42
2023-04-23T03:18:57.564Z,42.67
2023-04-23T03:21:26.148Z,42.55
2023-04-23T03:23:55.246Z,42.69
2023-04-23T03:26:25.372Z,42.61
2023-04-23T03:28:57.784Z,42.70
2023-04-23T03:31:29.863Z,42.67
2023-04-23T03:33:59.927Z,42.73
2023-04-23T03:36:32.225Z,42.80
2023-04-23T03:39:05.613Z,42.80
2023-04-23T03:41:45.763Z,43.15
2023-04-23T03:44:17.706Z,42.88
2023-04-23T03:46:47.106Z,42.85
2023-04-23T03:49:17.380Z,42.78
2023-04-23T03:51:47.245Z,42.96
2023-04-23T03:54:18.322Z,42.93
2023-04-23T03:57:09.902Z,43.06
2023-04-23T03:59:50.616Z,43.00
2023-04-23T04:02:19.818Z,43.10
2023-04-23T04:04:51.444Z,43.07
2023-04-23T04:07:19.336Z,43.20
2023-04-23T04:09:50.691Z,43.20
2023-04-23T04:12:20.880Z,43.30
2023-04-23T04:14:52.229Z,43.30
2023-04-23T04:17:20.125Z,43.31
2023-04-23T04:19:50.086Z,43.31
2023-04-23T04:22:21.663Z,43.56
2023-04-23T04:24:52.402Z,43.16
2023-04-23T04:27:22.130Z,43.50
2023-04-23T04:29:52.970Z,43.45
2023-04-23T04:32:23.154Z,43.45
2023-04-23T04:34:53.766Z,43.48
2023-04-23T04:37:24.752Z,43.65
2023-04-23T04:39:56.079Z,43.75
2023-04-23T04:42:26.236Z,43.54
2023-04-23T04:44:59.022Z,43.60
2023-04-23T04:47:27.611Z,43.64
2023-04-23T04:49:58.000Z,43.61
2023-04-23T04:52:28.826Z,43.79
2023-04-23T04:59:20.374Z,43.75
2023-04-23T05:01:51.863Z,43.73
2023-04-23T05:04:21.049Z,43.72
2023-04-23T05:06:53.220Z,43.65
2023-04-23T05:21:56.941Z,43.43
2023-04-23T05:24:35.508Z,43.57
2023-04-23T05:27:05.013Z,43.52
2023-04-23T05:29:36.721Z,43.39
2023-04-23T05:32:09.023Z,43.45
2023-04-23T05:34:49.474Z,43.46
2023-04-23T05:37:17.538Z,43.42
2023-04-23T05:39:46.050Z,43.36
2023-04-23T05:42:15.353Z,43.43
2023-04-23T05:44:43.983Z,43.39
2023-04-23T05:47:13.473Z,43.34
2023-04-23T05:49:42.812Z,43.28
2023-04-23T05:52:21.901Z,43.25
2023-04-23T05:55:43.520Z,43.29
2023-04-23T05:58:15.812Z,43.12
2023-04-23T06:00:48.229Z,43.22
2023-04-23T06:03:17.756Z,43.29
2023-04-23T06:05:45.950Z,43.15
2023-04-23T06:08:25.283Z,43.08
2023-04-23T06:11:02.834Z,43.01
2023-04-23T06:13:43.994Z,43.06
2023-04-23T06:16:12.808Z,42.97
2023-04-23T06:18:48.908Z,42.96
2023-04-23T06:21:20.925Z,42.95
2023-04-23T06:23:50.654Z,42.85
2023-04-23T06:26:21.785Z,42.89
2023-04-23T06:28:57.180Z,42.94
2023-04-23T06:31:30.821Z,42.80
2023-04-23T06:33:58.383Z,42.83
2023-04-23T06:36:26.123Z,42.69
2023-04-23T06:38:56.434Z,42.82
2023-04-23T06:41:25.801Z,42.63
2023-04-23T06:44:05.809Z,42.57
2023-04-23T06:46:37.479Z,42.50
2023-04-23T06:49:07.332Z,42.62
2023-04-23T06:51:35.296Z,42.54
2023-04-23T06:54:04.249Z,42.57
2023-04-23T06:56:34.377Z,42.53
2023-04-23T06:59:03.839Z,42.25
2023-04-23T07:01:31.932Z,42.24
2023-04-23T07:04:01.426Z,42.17
2023-04-23T07:06:31.149Z,42.13
2023-04-23T07:09:05.432Z,42.05
2023-04-23T07:11:37.325Z,41.59
2023-04-23T07:14:08.796Z,40.51
2023-04-23T07:16:37.621Z,39.58
2023-04-23T07:19:07.506Z,39.01
2023-04-23T07:21:38.028Z,38.47
2023-04-23T07:24:31.234Z,38.09
2023-04-23T07:27:24.761Z,37.36
2023-04-23T07:29:57.261Z,37.29
2023-04-23T07:33:00.171Z,37.06
2023-04-23T07:35:49.601Z,36.24
2023-04-23T07:39:19.267Z,36.19
2023-04-23T07:41:54.026Z,35.63
2023-04-23T07:44:24.122Z,35.26
2023-04-23T07:46:55.643Z,35.14
2023-04-23T07:49:23.585Z,34.55
2023-04-23T07:51:53.759Z,34.11
2023-04-23T07:54:25.656Z,33.86
2023-04-23T07:56:58.835Z,33.77
2023-04-23T07:59:29.129Z,33.16
2023-04-23T08:06:12.564Z,32.21
2023-04-23T08:08:50.786Z,31.76
2023-04-23T08:11:22.765Z,31.29
2023-04-23T08:13:54.315Z,31.04
2023-04-23T08:16:26.019Z,30.76
2023-04-23T08:19:05.418Z,30.36
2023-04-23T08:21:38.440Z,29.58
2023-04-23T08:24:11.445Z,28.98
2023-04-23T08:26:43.757Z,28.95
2023-04-23T08:29:15.172Z,28.21
2023-04-23T08:31:43.250Z,27.70
2023-04-23T08:34:11.374Z,27.46
2023-04-23T08:36:39.476Z,27.65
2023-04-23T08:39:11.270Z,27.62
2023-04-23T08:41:45.063Z,27.57
2023-04-23T08:44:23.905Z,26.74
2023-04-23T08:46:55.983Z,26.97
2023-04-23T08:49:31.707Z,25.71
2023-04-23T08:52:04.289Z,25.19
2023-04-23T08:54:34.635Z,25.13
2023-04-23T08:57:04.806Z,25.34
2023-04-23T08:59:36.298Z,25.27
2023-04-23T09:02:09.798Z,24.16
2023-04-23T09:04:41.163Z,23.89
2023-04-23T09:07:11.038Z,22.71
2023-04-23T09:09:40.451Z,22.42
2023-04-23T09:12:08.885Z,23.16
2023-04-23T09:14:36.682Z,22.87
2023-04-23T09:17:05.532Z,23.20
2023-04-23T09:19:33.135Z,22.32
2023-04-23T09:22:02.489Z,21.78
2023-04-23T09:24:33.096Z,22.26
2023-04-23T09:27:02.754Z,21.98
2023-04-23T09:29:31.213Z,21.92
2023-04-23T09:32:11.440Z,20.70
2023-04-23T09:34:42.528Z,19.98
2023-04-23T09:37:14.214Z,20.06
2023-04-23T09:40:12.338Z,19.82
2023-04-23T09:42:47.758Z,19.69
2023-04-23T09:45:17.674Z,20.35
2023-04-23T09:47:53.568Z,20.63
2023-04-23T09:50:36.550Z,20.62
2023-04-23T09:53:14.523Z,20.33
2023-04-23T09:56:09.298Z,19.66
2023-04-23T09:58:42.445Z,19.93
2023-04-23T10:01:16.554Z,20.27
2023-04-23T10:04:05.838Z,19.80
2023-04-23T10:07:20.183Z,20.30
2023-04-23T10:09:51.712Z,19.79
2023-04-23T10:12:54.339Z,20.12
2023-04-23T10:20:24.087Z,19.51
2023-04-23T10:23:53.146Z,20.33
2023-04-23T10:26:45.458Z,20.48
2023-04-23T10:29:20.249Z,20.48
2023-04-23T10:31:51.273Z,20.58
2023-04-23T10:34:20.799Z,20.55
2023-04-23T10:36:58.645Z,20.92
2023-04-23T10:39:37.465Z,21.36
2023-04-23T10:42:24.689Z,21.18
2023-04-23T10:45:02.683Z,21.13
2023-04-23T10:48:00.011Z,21.16
2023-04-23T10:50:32.373Z,21.14
2023-04-23T10:53:07.647Z,21.49
2023-04-23T10:55:40.465Z,21.54
2023-04-23T10:58:15.414Z,21.41
2023-04-23T11:00:48.320Z,21.62
2023-04-23T11:07:32.644Z,21.82
2023-04-23T11:10:35.075Z,21.86
2023-04-23T11:13:25.815Z,22.00
2023-04-23T11:16:17.741Z,21.43
2023-04-23T11:19:20.529Z,21.59
2023-04-23T11:21:54.684Z,22.17
2023-04-23T11:24:24.121Z,22.31
2023-04-23T11:26:55.763Z,22.29
2023-04-23T11:29:25.710Z,22.49
2023-04-23T11:32:02.513Z,22.42
2023-04-23T11:34:33.112Z,22.43
2023-04-23T11:37:04.625Z,22.57
2023-04-23T11:39:34.535Z,22.82
2023-04-23T11:42:35.320Z,22.67
2023-04-23T11:45:27.416Z,22.49
2023-04-23T11:48:04.262Z,22.88
2023-04-23T11:50:33.188Z,22.65
2023-04-23T11:53:12.249Z,22.67
2023-04-23T11:55:49.120Z,23.02
2023-04-23T11:58:22.108Z,22.95
2023-04-23T12:00:59.485Z,22.85
2023-04-23T12:03:32.356Z,22.91
2023-04-23T12:06:39.312Z,22.94
2023-04-23T12:09:28.559Z,23.26
2023-04-23T12:11:59.072Z,23.36
2023-04-23T12:14:38.865Z,23.26
2023-04-23T12:17:52.105Z,23.38
2023-04-23T12:24:39.353Z,23.66
2023-04-23T12:27:40.928Z,23.55
2023-04-23T12:30:35.228Z,23.79
2023-04-23T12:33:31.024Z,24.04
2023-04-23T12:36:27.486Z,23.71
2023-04-23T12:39:43.647Z,24.12
2023-04-23T12:42:54.509Z,23.82
2023-04-23T12:45:38.202Z,23.91
2023-04-23T12:48:08.808Z,24.19
2023-04-23T12:50:39.080Z,24.31
2023-04-23T12:53:09.500Z,24.32
2023-04-23T12:55:39.852Z,24.29
2023-04-23T12:58:08.076Z,24.41
2023-04-23T13:00:36.265Z,24.51
2023-04-23T13:03:06.036Z,24.46
2023-04-23T13:05:35.095Z,24.75
2023-04-23T13:08:05.293Z,24.73
2023-04-23T13:10:35.121Z,24.61
2023-04-23T13:13:05.885Z,24.46
2023-04-23T13:15:37.135Z,24.46
2023-04-23T13:18:29.336Z,24.79
2023-04-23T13:20:58.068Z,24.72
2023-04-23T13:23:27.475Z,24.55
2023-04-23T13:26:01.101Z,24.82
2023-04-23T13:28:32.903Z,24.91
2023-04-23T13:31:02.944Z,25.02
2023-04-23T13:33:35.384Z,25.12
2023-04-23T13:36:05.088Z,24.96
2023-04-23T13:38:34.592Z,24.84
2023-04-23T13:41:06.614Z,24.83
2023-04-23T13:44:36.052Z,25.13
2023-04-23T13:51:35.294Z,25.23
2023-04-23T14:18:53.120Z,25.60
2023-04-23T14:22:25.103Z,25.66
2023-04-23T14:26:40.825Z,25.64
2023-04-23T14:29:56.832Z,25.69
2023-04-23T14:33:44.190Z,25.51
2023-04-23T14:37:45.233Z,25.51
2023-04-23T14:41:29.283Z,25.81
2023-04-23T14:48:25.272Z,26.06
2023-04-23T14:58:16.758Z,26.13
2023-04-23T15:00:45.736Z,26.25
2023-04-23T15:03:16.398Z,26.20
2023-04-23T15:05:46.666Z,26.22
2023-04-23T15:08:28.507Z,26.32
2023-04-23T15:10:59.132Z,26.44
2023-04-23T15:13:36.841Z,26.48
2023-04-23T15:16:19.068Z,26.39
2023-04-23T15:18:56.454Z,26.29
2023-04-23T15:21:26.879Z,26.42
2023-04-23T15:23:59.012Z,26.53
2023-04-23T15:26:28.598Z,26.77
2023-04-23T15:28:59.947Z,26.87
2023-04-23T15:31:29.994Z,26.81
2023-04-23T15:33:59.184Z,26.84
2023-04-23T15:36:29.109Z,26.92
2023-04-23T15:38:57.526Z,26.98
2023-04-23T15:41:29.121Z,26.95
2023-04-23T15:43:58.355Z,27.12
2023-04-23T15:46:28.620Z,27.29
2023-04-23T15:48:58.092Z,27.21
2023-04-23T15:51:43.137Z,27.35
2023-04-23T15:54:13.534Z,27.31
2023-04-23T15:56:44.232Z,27.39
2023-04-23T15:59:14.385Z,27.36
2023-04-23T16:01:42.877Z,27.39
2023-04-23T16:04:13.668Z,27.62
2023-04-23T16:06:41.585Z,27.68
2023-04-23T16:09:17.461Z,27.59
2023-04-23T16:11:50.971Z,27.64
2023-04-23T16:14:23.244Z,27.75
2023-04-23T16:17:06.012Z,27.79
2023-04-23T16:19:34.681Z,27.87
2023-04-23T16:22:05.585Z,27.87
2023-04-23T16:24:36.330Z,27.99
2023-04-23T16:27:07.742Z,27.98
2023-04-23T16:29:39.632Z,28.07
2023-04-23T16:32:09.918Z,28.05
2023-04-23T16:34:40.381Z,28.27
2023-04-23T16:37:15.683Z,28.23
2023-04-23T16:40:06.986Z,28.41
2023-04-23T16:42:42.292Z,28.36
2023-04-23T16:45:12.347Z,28.56
2023-04-23T16:47:44.606Z,28.59
2023-04-23T16:50:14.748Z,28.69
2023-04-23T16:52:46.278Z,28.87
2023-04-23T16:55:16.245Z,28.86
2023-04-23T16:57:56.193Z,28.94
2023-04-23T17:00:41.712Z,29.11
2023-04-23T17:03:25.359Z,29.10
2023-04-23T17:06:02.865Z,29.15
2023-04-23T17:08:35.068Z,29.23
2023-04-23T17:11:15.901Z,29.31
2023-04-23T17:13:44.160Z,29.35
2023-04-23T17:16:16.060Z,29.45
2023-04-23T17:18:55.796Z,29.52
2023-04-23T17:21:28.133Z,29.59
2023-04-23T17:23:58.527Z,29.72
2023-04-23T17:26:30.656Z,29.84
2023-04-23T17:29:01.035Z,29.80
2023-04-23T17:31:40.446Z,29.89
2023-04-23T17:40:41.727Z,30.20
2023-04-23T17:43:32.685Z,30.33
2023-04-23T18:06:46.327Z,31.87
2023-04-23T18:12:48.785Z,32.51
2023-04-23T18:15:28.971Z,32.82
2023-04-23T18:18:02.447Z,33.01
2023-04-23T18:20:35.559Z,33.26
2023-04-23T18:23:10.337Z,33.42
2023-04-23T18:25:51.431Z,33.52
2023-04-23T18:28:22.790Z,33.71
2023-04-23T18:30:56.599Z,33.94
2023-04-23T18:33:48.649Z,34.10
2023-04-23T18:36:25.997Z,34.24
2023-04-23T18:38:56.903Z,34.32
2023-04-23T18:41:30.352Z,34.48
2023-04-23T18:44:09.005Z,34.60
2023-04-23T18:46:42.387Z,34.61
2023-04-23T18:49:32.313Z,34.72
2023-04-23T18:52:03.363Z,34.91
2023-04-23T18:54:34.261Z,34.94
2023-04-23T18:57:17.123Z,35.04
2023-04-23T18:59:51.142Z,35.26
2023-04-23T19:02:37.086Z,35.39
2023-04-23T19:06:08.624Z,35.40
2023-04-23T19:09:14.297Z,35.57
2023-04-23T19:11:58.228Z,35.65
2023-04-23T19:14:43.016Z,35.87
2023-04-23T19:17:19.217Z,36.01
2023-04-23T19:19:50.539Z,35.96
2023-04-23T19:22:25.661Z,36.11
2023-04-23T19:28:36.332Z,36.30
2023-04-23T19:31:17.347Z,36.40
2023-04-23T19:33:52.494Z,36.60
2023-04-23T19:36:38.921Z,36.83
2023-04-23T19:39:16.221Z,36.82
2023-04-23T19:41:52.895Z,36.85
2023-04-23T19:44:38.019Z,37.03
2023-04-23T19:47:30.474Z,37.10
2023-04-23T19:50:04.154Z,37.17
2023-04-23T19:52:43.294Z,37.31
2023-04-23T19:55:13.964Z,37.38
2023-04-23T19:57:52.478Z,37.34
2023-04-23T20:00:27.683Z,37.46
2023-04-23T20:03:12.207Z,37.55
2023-04-23T20:05:54.778Z,37.82
2023-04-23T20:08:44.540Z,37.73
2023-04-23T20:11:18.744Z,37.99
2023-04-23T20:14:16.308Z,37.95
2023-04-23T20:16:47.615Z,38.18
2023-04-23T20:19:21.050Z,38.30
2023-04-23T20:21:57.280Z,38.29
2023-04-23T20:24:34.801Z,38.50
2023-04-23T20:27:19.619Z,38.64
2023-04-23T20:29:58.769Z,38.72
2023-04-23T20:32:39.746Z,38.75
2023-04-23T20:35:32.835Z,38.95
2023-04-23T20:42:33.270Z,39.33
2023-04-23T20:45:03.858Z,39.51
2023-04-23T20:47:32.013Z,39.49
2023-04-23T20:50:03.976Z,39.53
2023-04-23T20:52:33.284Z,39.76
2023-04-23T20:55:02.028Z,39.84
2023-04-23T20:57:32.117Z,39.93
2023-04-23T21:00:03.160Z,39.89
2023-04-23T21:02:57.140Z,40.02
2023-04-23T21:10:14.583Z,40.26
2023-04-23T21:12:43.155Z,40.36
2023-04-23T21:15:14.097Z,40.38
2023-04-23T21:22:06.295Z,40.49
2023-04-23T21:24:35.440Z,40.55
2023-04-23T21:27:06.396Z,40.76
2023-04-23T21:29:37.416Z,40.72
2023-04-23T21:32:09.866Z,40.86
2023-04-23T21:34:39.468Z,41.00
2023-04-23T21:37:08.968Z,41.11
2023-04-23T21:39:37.400Z,41.09
2023-04-23T21:42:09.721Z,41.17
2023-04-23T21:44:48.591Z,41.34
2023-04-23T21:47:19.778Z,41.40
2023-04-23T21:49:49.406Z,41.39
2023-04-23T21:52:19.741Z,41.38
2023-04-23T21:54:49.117Z,41.49
2023-04-23T21:57:17.491Z,41.64
2023-04-23T21:59:46.884Z,41.68
2023-04-23T22:02:16.034Z,41.64
2023-04-23T22:04:48.023Z,41.69
2023-04-23T22:07:15.722Z,41.97
2023-04-23T22:09:46.005Z,42.14
2023-04-23T22:12:15.553Z,42.31
2023-04-23T22:14:44.070Z,42.33
2023-04-23T22:17:14.431Z,42.27
2023-04-23T22:24:08.553Z,42.54
2023-04-23T22:26:37.470Z,42.49
2023-04-23T22:29:07.033Z,42.53
2023-04-23T22:31:36.763Z,42.63
2023-04-23T22:34:10.086Z,42.56
2023-04-23T22:36:38.201Z,42.65
2023-04-23T22:39:06.840Z,42.77
2023-04-23T22:41:39.811Z,42.96
2023-04-23T22:44:09.838Z,42.97
2023-04-23T22:46:37.882Z,43.05
2023-04-23T22:49:07.993Z,43.08
2023-04-23T22:51:38.390Z,43.07
2023-04-23T22:54:06.788Z,43.16
2023-04-23T22:56:34.391Z,43.30
2023-04-23T22:59:04.573Z,43.37
2023-04-23T23:01:33.420Z,43.32
2023-04-23T23:04:01.020Z,43.49
2023-04-23T23:06:30.055Z,43.48
2023-04-23T23:09:00.223Z,43.56
2023-04-23T23:11:31.252Z,43.63
2023-04-23T23:14:01.181Z,43.59
2023-04-23T23:16:32.392Z,43.66
2023-04-23T23:19:03.886Z,43.76
2023-04-23T23:21:33.598Z,43.79
2023-04-23T23:24:01.384Z,43.92
2023-04-23T23:26:29.079Z,43.89
2023-04-23T23:28:59.890Z,43.97
2023-04-23T23:31:30.422Z,44.21
2023-04-23T23:33:59.206Z,44.28
2023-04-23T23:36:28.336Z,44.39
2023-04-23T23:38:57.951Z,44.38
2023-04-23T23:41:25.706Z,44.47
2023-04-23T23:43:56.386Z,44.47
2023-04-23T23:46:25.141Z,44.43
2023-04-23T23:48:54.710Z,44.49
2023-04-23T23:51:24.288Z,44.53
2023-04-23T23:53:55.087Z,44.72
2023-04-23T23:56:25.399Z,44.74
2023-04-23T23:58:54.707Z,44.88
